This is the latest recevied weather packets stored in our database for station/object KL7GG. If no packets are shown the sender has not sent any weather packets the latest 1 day(s).
| Time | Temp. | Humidity | Pressure | Rain* | Wind** | Luminosity | Snow |
|---|---|---|---|---|---|---|---|
| 1778095179 | 8.33° C | 58% | 1009.6 hPa | 0 mm | - | - | - |
| 1778091560 | 7.22° C | 63% | 1009.4 hPa | 0 mm | - | - | - |
| 1778084324 | 4.44° C | 72% | 1008.9 hPa | 0 mm | - | - | - |
| 1778083420 | 3.89° C | 75% | 1008.8 hPa | 0 mm | - | - | - |
| 1778070756 | 3.89° C | 68% | 1008.2 hPa | 0 mm | - | - | - |
| 1778067140 | 3.89° C | 69% | 1007.8 hPa | 0 mm | - | - | - |
| 1778061716 | 4.44° C | 68% | 1007.3 hPa | 0 mm | - | - | - |
| 1778060812 | 4.44° C | 66% | 1007.2 hPa | 0 mm | - | - | - |
| 1778059908 | 4.44° C | 66% | 1007.1 hPa | 0 mm | - | - | - |
| 1778059004 | 4.44° C | 64% | 1007.2 hPa | 0 mm | - | - | - |
| 1778057194 | 3.89° C | 63% | 1006.9 hPa | 0 mm | - | - | - |
| 1778056290 | 4.44° C | 64% | 1006.7 hPa | 0 mm | - | - | - |
| 1778054482 | 5° C | 62% | 1006.6 hPa | 0 mm | - | - | - |
| 1778053578 | 5.56° C | 62% | 1006.7 hPa | 0 mm | - | - | - |
| 1778052674 | 5.56° C | 62% | 1006.7 hPa | 0 mm | - | - | - |
| 1778051770 | 6.11° C | 60% | 1006.5 hPa | 0 mm | - | - | - |
| 1778050866 | 6.11° C | 59% | 1006.3 hPa | 0 mm | - | - | - |
| 1778049056 | 6.67° C | 57% | 1005.8 hPa | 0 mm | - | - | - |
| 1778047248 | 7.78° C | 50% | 1005.5 hPa | 0 mm | - | - | - |
| 1778046344 | 8.33° C | 50% | 1005.5 hPa | 0 mm | - | - | - |
| 1778045438 | 8.33° C | 50% | 1005.2 hPa | 0 mm | - | - | - |
| 1778044534 | 8.33° C | 49% | 1005 hPa | 0 mm | - | - | - |
| 1778043628 | 8.89° C | 49% | 1004.9 hPa | 0 mm | - | - | - |
| 1778042724 | 8.89° C | 49% | 1004.7 hPa | 0 mm | - | - | - |
| 1778041820 | 9.44° C | 47% | 1004.6 hPa | 0 mm | - | - | - |
* Rain latest hour (hover to see other rain measurements)
** Current wind speed in m/s (hover to see current wind gust speed)